sensor_id;sensor_type;location;lat;lon;timestamp;temperature;humidity
14101;DHT22;7127;49.372;8.166;2022-08-01T00:02:19;28.20;36.50
14101;DHT22;7127;49.372;8.166;2022-08-01T00:04:46;28.20;36.50
14101;DHT22;7127;49.372;8.166;2022-08-01T00:07:13;28.20;36.70
14101;DHT22;7127;49.372;8.166;2022-08-01T00:09:40;28.20;36.60
14101;DHT22;7127;49.372;8.166;2022-08-01T00:12:08;28.10;36.60
14101;DHT22;7127;49.372;8.166;2022-08-01T00:14:35;28.20;36.80
14101;DHT22;7127;49.372;8.166;2022-08-01T00:17:02;28.10;37.20
14101;DHT22;7127;49.372;8.166;2022-08-01T00:19:31;28.10;37.00
14101;DHT22;7127;49.372;8.166;2022-08-01T00:21:58;28.10;37.10
14101;DHT22;7127;49.372;8.166;2022-08-01T00:24:26;28.10;37.20
14101;DHT22;7127;49.372;8.166;2022-08-01T00:26:53;28.10;37.70
14101;DHT22;7127;49.372;8.166;2022-08-01T00:29:20;28.00;37.40
14101;DHT22;7127;49.372;8.166;2022-08-01T00:31:47;28.00;37.40
14101;DHT22;7127;49.372;8.166;2022-08-01T00:34:14;28.00;37.50
14101;DHT22;7127;49.372;8.166;2022-08-01T00:36:42;27.90;38.10
14101;DHT22;7127;49.372;8.166;2022-08-01T00:39:10;27.90;38.20
14101;DHT22;7127;49.372;8.166;2022-08-01T00:41:37;27.90;37.90
14101;DHT22;7127;49.372;8.166;2022-08-01T00:44:04;27.90;38.00
14101;DHT22;7127;49.372;8.166;2022-08-01T00:46:32;27.90;38.40
14101;DHT22;7127;49.372;8.166;2022-08-01T00:49:00;27.80;38.10
14101;DHT22;7127;49.372;8.166;2022-08-01T00:51:27;27.80;38.40
14101;DHT22;7127;49.372;8.166;2022-08-01T00:53:56;27.70;38.20
14101;DHT22;7127;49.372;8.166;2022-08-01T00:56:25;27.80;38.40
14101;DHT22;7127;49.372;8.166;2022-08-01T00:58:54;27.80;38.40
14101;DHT22;7127;49.372;8.166;2022-08-01T01:01:21;27.70;38.40
14101;DHT22;7127;49.372;8.166;2022-08-01T01:03:49;27.70;38.40
14101;DHT22;7127;49.372;8.166;2022-08-01T01:06:30;27.70;38.60
14101;DHT22;7127;49.372;8.166;2022-08-01T01:09:21;27.70;38.90
14101;DHT22;7127;49.372;8.166;2022-08-01T01:11:59;27.70;39.70
14101;DHT22;7127;49.372;8.166;2022-08-01T01:14:36;27.70;39.00
14101;DHT22;7127;49.372;8.166;2022-08-01T01:17:06;27.70;38.90
14101;DHT22;7127;49.372;8.166;2022-08-01T01:19:39;27.70;38.80
14101;DHT22;7127;49.372;8.166;2022-08-01T01:22:21;27.70;39.00
14101;DHT22;7127;49.372;8.166;2022-08-01T01:25:02;27.70;39.00
14101;DHT22;7127;49.372;8.166;2022-08-01T01:27:42;27.70;39.20
14101;DHT22;7127;49.372;8.166;2022-08-01T01:30:13;27.60;39.20
14101;DHT22;7127;49.372;8.166;2022-08-01T01:32:44;27.60;39.00
14101;DHT22;7127;49.372;8.166;2022-08-01T01:35:17;27.60;39.00
14101;DHT22;7127;49.372;8.166;2022-08-01T01:37:47;27.60;39.10
14101;DHT22;7127;49.372;8.166;2022-08-01T01:40:18;27.60;38.90
14101;DHT22;7127;49.372;8.166;2022-08-01T01:42:46;27.60;38.90
14101;DHT22;7127;49.372;8.166;2022-08-01T01:45:16;27.60;39.00
14101;DHT22;7127;49.372;8.166;2022-08-01T01:47:44;27.60;39.10
14101;DHT22;7127;49.372;8.166;2022-08-01T01:50:12;27.60;39.10
14101;DHT22;7127;49.372;8.166;2022-08-01T01:52:41;27.50;39.00
14101;DHT22;7127;49.372;8.166;2022-08-01T01:55:09;27.50;39.10
14101;DHT22;7127;49.372;8.166;2022-08-01T01:57:39;27.50;39.20
14101;DHT22;7127;49.372;8.166;2022-08-01T02:00:08;27.50;39.20
14101;DHT22;7127;49.372;8.166;2022-08-01T02:02:37;27.50;39.30
14101;DHT22;7127;49.372;8.166;2022-08-01T02:05:05;27.50;39.40
14101;DHT22;7127;49.372;8.166;2022-08-01T02:07:33;27.40;39.30
14101;DHT22;7127;49.372;8.166;2022-08-01T02:10:02;27.40;39.40
14101;DHT22;7127;49.372;8.166;2022-08-01T02:12:30;27.40;39.50
14101;DHT22;7127;49.372;8.166;2022-08-01T02:15:00;27.30;39.40
14101;DHT22;7127;49.372;8.166;2022-08-01T02:17:30;27.30;39.60
14101;DHT22;7127;49.372;8.166;2022-08-01T02:19:59;27.30;39.60
14101;DHT22;7127;49.372;8.166;2022-08-01T02:22:30;27.30;39.70
14101;DHT22;7127;49.372;8.166;2022-08-01T02:25:00;27.20;39.80
14101;DHT22;7127;49.372;8.166;2022-08-01T02:27:33;27.20;39.80
14101;DHT22;7127;49.372;8.166;2022-08-01T02:30:04;27.20;39.90
14101;DHT22;7127;49.372;8.166;2022-08-01T02:32:34;27.20;40.00
14101;DHT22;7127;49.372;8.166;2022-08-01T02:35:07;27.10;40.00
14101;DHT22;7127;49.372;8.166;2022-08-01T02:37:38;27.10;40.10
14101;DHT22;7127;49.372;8.166;2022-08-01T02:40:08;27.10;40.10
14101;DHT22;7127;49.372;8.166;2022-08-01T02:42:37;27.00;40.20
14101;DHT22;7127;49.372;8.166;2022-08-01T02:45:07;27.00;40.20
14101;DHT22;7127;49.372;8.166;2022-08-01T02:47:37;27.00;40.30
14101;DHT22;7127;49.372;8.166;2022-08-01T02:50:08;26.90;40.40
14101;DHT22;7127;49.372;8.166;2022-08-01T02:52:37;26.90;40.50
14101;DHT22;7127;49.372;8.166;2022-08-01T02:55:07;26.80;40.50
14101;DHT22;7127;49.372;8.166;2022-08-01T02:57:36;26.80;40.60
14101;DHT22;7127;49.372;8.166;2022-08-01T03:00:05;26.80;40.90
14101;DHT22;7127;49.372;8.166;2022-08-01T03:02:34;26.70;40.80
14101;DHT22;7127;49.372;8.166;2022-08-01T03:05:03;26.60;40.90
14101;DHT22;7127;49.372;8.166;2022-08-01T03:07:32;26.60;41.00
14101;DHT22;7127;49.372;8.166;2022-08-01T03:09:59;26.50;41.70
14101;DHT22;7127;49.372;8.166;2022-08-01T03:12:29;26.50;41.30
14101;DHT22;7127;49.372;8.166;2022-08-01T03:14:59;26.40;41.40
14101;DHT22;7127;49.372;8.166;2022-08-01T03:17:28;26.40;41.40
14101;DHT22;7127;49.372;8.166;2022-08-01T03:19:58;26.30;41.40
14101;DHT22;7127;49.372;8.166;2022-08-01T03:22:27;26.30;41.50
14101;DHT22;7127;49.372;8.166;2022-08-01T03:24:58;26.30;41.80
14101;DHT22;7127;49.372;8.166;2022-08-01T03:27:27;26.20;41.80
14101;DHT22;7127;49.372;8.166;2022-08-01T03:29:55;26.20;41.80
14101;DHT22;7127;49.372;8.166;2022-08-01T03:32:23;26.10;42.00
14101;DHT22;7127;49.372;8.166;2022-08-01T03:34:51;26.10;42.10
14101;DHT22;7127;49.372;8.166;2022-08-01T03:37:23;26.00;42.00
14101;DHT22;7127;49.372;8.166;2022-08-01T03:39:55;26.00;42.40
14101;DHT22;7127;49.372;8.166;2022-08-01T03:42:31;26.00;42.50
14101;DHT22;7127;49.372;8.166;2022-08-01T03:45:01;26.00;42.60
14101;DHT22;7127;49.372;8.166;2022-08-01T03:47:31;25.90;42.40
14101;DHT22;7127;49.372;8.166;2022-08-01T03:50:01;25.90;42.60
14101;DHT22;7127;49.372;8.166;2022-08-01T03:52:29;25.90;42.60
14101;DHT22;7127;49.372;8.166;2022-08-01T03:54:59;25.90;42.60
14101;DHT22;7127;49.372;8.166;2022-08-01T03:57:29;25.80;42.70
14101;DHT22;7127;49.372;8.166;2022-08-01T03:59:57;25.80;42.80
14101;DHT22;7127;49.372;8.166;2022-08-01T04:02:26;25.80;43.10
14101;DHT22;7127;49.372;8.166;2022-08-01T04:04:54;25.80;43.10
14101;DHT22;7127;49.372;8.166;2022-08-01T04:07:22;25.80;43.20
14101;DHT22;7127;49.372;8.166;2022-08-01T04:09:49;25.80;43.20
14101;DHT22;7127;49.372;8.166;2022-08-01T04:12:17;25.80;43.20
14101;DHT22;7127;49.372;8.166;2022-08-01T04:14:46;25.80;43.20
14101;DHT22;7127;49.372;8.166;2022-08-01T04:17:13;25.80;43.40
14101;DHT22;7127;49.372;8.166;2022-08-01T04:19:40;25.70;43.30
14101;DHT22;7127;49.372;8.166;2022-08-01T04:22:08;25.80;43.60
14101;DHT22;7127;49.372;8.166;2022-08-01T04:24:36;25.70;43.50
14101;DHT22;7127;49.372;8.166;2022-08-01T04:27:09;25.70;43.40
14101;DHT22;7127;49.372;8.166;2022-08-01T04:29:37;25.70;43.70
14101;DHT22;7127;49.372;8.166;2022-08-01T04:32:07;25.70;43.50
14101;DHT22;7127;49.372;8.166;2022-08-01T04:34:39;25.70;43.60
14101;DHT22;7127;49.372;8.166;2022-08-01T04:37:08;25.60;43.70
14101;DHT22;7127;49.372;8.166;2022-08-01T04:39:37;25.60;43.90
14101;DHT22;7127;49.372;8.166;2022-08-01T04:42:06;25.60;43.70
14101;DHT22;7127;49.372;8.166;2022-08-01T04:44:33;25.60;43.80
14101;DHT22;7127;49.372;8.166;2022-08-01T04:47:02;25.60;43.80
14101;DHT22;7127;49.372;8.166;2022-08-01T04:49:32;25.60;43.90
14101;DHT22;7127;49.372;8.166;2022-08-01T04:52:00;25.60;44.00
14101;DHT22;7127;49.372;8.166;2022-08-01T04:54:28;25.60;44.10
14101;DHT22;7127;49.372;8.166;2022-08-01T04:56:55;25.60;44.10
14101;DHT22;7127;49.372;8.166;2022-08-01T04:59:25;25.60;44.10
14101;DHT22;7127;49.372;8.166;2022-08-01T05:02:08;25.60;44.10
14101;DHT22;7127;49.372;8.166;2022-08-01T05:04:37;25.50;44.10
14101;DHT22;7127;49.372;8.166;2022-08-01T05:07:06;25.50;44.20
14101;DHT22;7127;49.372;8.166;2022-08-01T05:09:33;25.50;44.60
14101;DHT22;7127;49.372;8.166;2022-08-01T05:12:02;25.50;44.20
14101;DHT22;7127;49.372;8.166;2022-08-01T05:14:30;25.50;44.50
14101;DHT22;7127;49.372;8.166;2022-08-01T05:16:58;25.50;44.40
14101;DHT22;7127;49.372;8.166;2022-08-01T05:19:25;25.50;44.40
14101;DHT22;7127;49.372;8.166;2022-08-01T05:21:54;25.40;44.40
14101;DHT22;7127;49.372;8.166;2022-08-01T05:24:22;25.40;44.60
14101;DHT22;7127;49.372;8.166;2022-08-01T05:26:49;25.50;44.60
14101;DHT22;7127;49.372;8.166;2022-08-01T05:29:16;25.50;44.90
14101;DHT22;7127;49.372;8.166;2022-08-01T05:31:43;25.50;44.70
14101;DHT22;7127;49.372;8.166;2022-08-01T05:34:10;25.50;45.30
14101;DHT22;7127;49.372;8.166;2022-08-01T05:36:37;25.50;45.10
14101;DHT22;7127;49.372;8.166;2022-08-01T05:39:05;25.50;45.00
14101;DHT22;7127;49.372;8.166;2022-08-01T05:41:32;25.50;45.30
14101;DHT22;7127;49.372;8.166;2022-08-01T05:43:59;25.50;45.60
14101;DHT22;7127;49.372;8.166;2022-08-01T05:46:26;25.50;45.40
14101;DHT22;7127;49.372;8.166;2022-08-01T05:48:53;25.60;45.70
14101;DHT22;7127;49.372;8.166;2022-08-01T05:51:20;25.60;45.60
14101;DHT22;7127;49.372;8.166;2022-08-01T05:53:47;25.60;45.40
14101;DHT22;7127;49.372;8.166;2022-08-01T05:56:16;25.60;45.40
14101;DHT22;7127;49.372;8.166;2022-08-01T05:58:43;25.70;45.50
14101;DHT22;7127;49.372;8.166;2022-08-01T06:01:10;25.70;45.30
14101;DHT22;7127;49.372;8.166;2022-08-01T06:03:37;25.80;45.20
14101;DHT22;7127;49.372;8.166;2022-08-01T06:06:04;25.80;45.10
14101;DHT22;7127;49.372;8.166;2022-08-01T06:08:31;25.90;45.50
14101;DHT22;7127;49.372;8.166;2022-08-01T06:10:58;25.90;45.20
14101;DHT22;7127;49.372;8.166;2022-08-01T06:13:26;25.90;45.10
14101;DHT22;7127;49.372;8.166;2022-08-01T06:15:54;25.90;45.40
14101;DHT22;7127;49.372;8.166;2022-08-01T06:18:21;26.00;45.10
14101;DHT22;7127;49.372;8.166;2022-08-01T06:20:48;26.00;45.20
14101;DHT22;7127;49.372;8.166;2022-08-01T06:23:15;26.00;45.20
14101;DHT22;7127;49.372;8.166;2022-08-01T06:25:42;26.00;45.20
14101;DHT22;7127;49.372;8.166;2022-08-01T06:28:09;26.10;45.20
14101;DHT22;7127;49.372;8.166;2022-08-01T06:30:38;26.10;45.10
14101;DHT22;7127;49.372;8.166;2022-08-01T06:33:05;26.10;45.10
14101;DHT22;7127;49.372;8.166;2022-08-01T06:35:32;26.20;45.10
14101;DHT22;7127;49.372;8.166;2022-08-01T06:37:59;26.20;45.20
14101;DHT22;7127;49.372;8.166;2022-08-01T06:40:26;26.30;45.20
14101;DHT22;7127;49.372;8.166;2022-08-01T06:42:53;26.30;45.20
14101;DHT22;7127;49.372;8.166;2022-08-01T06:45:20;26.40;45.20
14101;DHT22;7127;49.372;8.166;2022-08-01T06:47:52;26.40;45.20
14101;DHT22;7127;49.372;8.166;2022-08-01T06:50:19;26.60;45.30
14101;DHT22;7127;49.372;8.166;2022-08-01T06:52:46;26.60;45.20
14101;DHT22;7127;49.372;8.166;2022-08-01T06:55:13;26.60;45.20
14101;DHT22;7127;49.372;8.166;2022-08-01T06:57:50;26.70;45.20
14101;DHT22;7127;49.372;8.166;2022-08-01T07:00:19;26.80;45.30
14101;DHT22;7127;49.372;8.166;2022-08-01T07:02:48;26.80;45.10
14101;DHT22;7127;49.372;8.166;2022-08-01T07:05:16;26.90;45.00
14101;DHT22;7127;49.372;8.166;2022-08-01T07:07:43;27.00;45.00
14101;DHT22;7127;49.372;8.166;2022-08-01T07:10:11;27.10;45.00
14101;DHT22;7127;49.372;8.166;2022-08-01T07:12:38;27.10;45.00
14101;DHT22;7127;49.372;8.166;2022-08-01T07:15:07;27.20;44.90
14101;DHT22;7127;49.372;8.166;2022-08-01T07:17:37;27.20;44.70
14101;DHT22;7127;49.372;8.166;2022-08-01T07:20:06;27.20;44.50
14101;DHT22;7127;49.372;8.166;2022-08-01T07:22:35;27.20;44.40
14101;DHT22;7127;49.372;8.166;2022-08-01T07:25:03;27.20;44.50
14101;DHT22;7127;49.372;8.166;2022-08-01T07:27:30;27.20;44.40
14101;DHT22;7127;49.372;8.166;2022-08-01T07:29:57;27.30;44.50
14101;DHT22;7127;49.372;8.166;2022-08-01T07:32:25;27.20;44.40
14101;DHT22;7127;49.372;8.166;2022-08-01T07:34:52;27.20;44.40
14101;DHT22;7127;49.372;8.166;2022-08-01T07:37:19;27.20;44.30
14101;DHT22;7127;49.372;8.166;2022-08-01T07:39:47;27.30;44.50
14101;DHT22;7127;49.372;8.166;2022-08-01T07:42:14;27.30;44.50
14101;DHT22;7127;49.372;8.166;2022-08-01T07:44:41;27.30;44.40
14101;DHT22;7127;49.372;8.166;2022-08-01T07:47:08;27.30;44.40
14101;DHT22;7127;49.372;8.166;2022-08-01T07:49:35;27.40;44.40
14101;DHT22;7127;49.372;8.166;2022-08-01T07:52:03;27.40;44.30
14101;DHT22;7127;49.372;8.166;2022-08-01T07:54:30;27.40;44.20
14101;DHT22;7127;49.372;8.166;2022-08-01T07:56:59;27.50;44.30
14101;DHT22;7127;49.372;8.166;2022-08-01T07:59:26;27.60;44.20
14101;DHT22;7127;49.372;8.166;2022-08-01T08:01:53;27.60;44.00
14101;DHT22;7127;49.372;8.166;2022-08-01T08:04:20;27.70;44.10
14101;DHT22;7127;49.372;8.166;2022-08-01T08:06:47;27.70;44.10
14101;DHT22;7127;49.372;8.166;2022-08-01T08:09:14;27.70;44.10
14101;DHT22;7127;49.372;8.166;2022-08-01T08:11:42;27.80;44.10
14101;DHT22;7127;49.372;8.166;2022-08-01T08:14:11;27.90;44.10
14101;DHT22;7127;49.372;8.166;2022-08-01T08:16:38;27.90;44.00
14101;DHT22;7127;49.372;8.166;2022-08-01T08:19:05;28.00;43.90
14101;DHT22;7127;49.372;8.166;2022-08-01T08:21:33;28.10;43.80
14101;DHT22;7127;49.372;8.166;2022-08-01T08:24:00;28.20;43.70
14101;DHT22;7127;49.372;8.166;2022-08-01T08:26:44;28.30;43.60
14101;DHT22;7127;49.372;8.166;2022-08-01T08:29:13;28.30;43.40
14101;DHT22;7127;49.372;8.166;2022-08-01T08:31:40;28.50;43.30
14101;DHT22;7127;49.372;8.166;2022-08-01T08:34:07;28.50;43.20
14101;DHT22;7127;49.372;8.166;2022-08-01T08:36:34;28.60;43.10
14101;DHT22;7127;49.372;8.166;2022-08-01T08:39:01;28.70;42.90
14101;DHT22;7127;49.372;8.166;2022-08-01T08:41:29;28.70;42.80
14101;DHT22;7127;49.372;8.166;2022-08-01T08:43:57;28.80;42.90
14101;DHT22;7127;49.372;8.166;2022-08-01T08:46:27;28.90;42.60
14101;DHT22;7127;49.372;8.166;2022-08-01T08:48:55;29.00;42.50
14101;DHT22;7127;49.372;8.166;2022-08-01T08:51:25;29.10;42.50
14101;DHT22;7127;49.372;8.166;2022-08-01T08:53:53;29.20;42.30
14101;DHT22;7127;49.372;8.166;2022-08-01T08:56:24;29.30;42.10
14101;DHT22;7127;49.372;8.166;2022-08-01T08:58:51;29.40;42.00
14101;DHT22;7127;49.372;8.166;2022-08-01T09:01:18;29.50;41.80
14101;DHT22;7127;49.372;8.166;2022-08-01T09:03:47;29.60;41.60
14101;DHT22;7127;49.372;8.166;2022-08-01T09:06:14;29.60;41.50
14101;DHT22;7127;49.372;8.166;2022-08-01T09:08:42;29.70;41.40
14101;DHT22;7127;49.372;8.166;2022-08-01T09:11:09;29.80;41.30
14101;DHT22;7127;49.372;8.166;2022-08-01T09:13:36;29.90;41.10
14101;DHT22;7127;49.372;8.166;2022-08-01T09:16:04;29.90;41.00
14101;DHT22;7127;49.372;8.166;2022-08-01T09:18:33;30.00;40.90
14101;DHT22;7127;49.372;8.166;2022-08-01T09:21:13;30.10;40.80
14101;DHT22;7127;49.372;8.166;2022-08-01T09:23:43;30.10;40.60
14101;DHT22;7127;49.372;8.166;2022-08-01T09:26:12;30.10;40.70
14101;DHT22;7127;49.372;8.166;2022-08-01T09:28:41;30.20;40.70
14101;DHT22;7127;49.372;8.166;2022-08-01T09:31:10;30.20;40.50
14101;DHT22;7127;49.372;8.166;2022-08-01T09:33:51;30.30;40.60
14101;DHT22;7127;49.372;8.166;2022-08-01T09:36:21;30.20;40.30
14101;DHT22;7127;49.372;8.166;2022-08-01T09:38:48;30.20;40.40
14101;DHT22;7127;49.372;8.166;2022-08-01T09:41:16;30.20;40.30
14101;DHT22;7127;49.372;8.166;2022-08-01T09:43:48;30.30;40.40
14101;DHT22;7127;49.372;8.166;2022-08-01T09:46:16;30.30;40.40
14101;DHT22;7127;49.372;8.166;2022-08-01T09:49:00;30.30;40.30
14101;DHT22;7127;49.372;8.166;2022-08-01T09:51:30;30.30;40.30
14101;DHT22;7127;49.372;8.166;2022-08-01T09:53:58;30.30;40.30
14101;DHT22;7127;49.372;8.166;2022-08-01T09:56:26;30.30;40.40
14101;DHT22;7127;49.372;8.166;2022-08-01T09:58:55;30.30;40.30
14101;DHT22;7127;49.372;8.166;2022-08-01T10:01:22;30.30;40.30
14101;DHT22;7127;49.372;8.166;2022-08-01T10:04:07;30.30;40.60
14101;DHT22;7127;49.372;8.166;2022-08-01T10:06:37;30.40;40.30
14101;DHT22;7127;49.372;8.166;2022-08-01T10:09:04;30.40;40.30
14101;DHT22;7127;49.372;8.166;2022-08-01T10:11:32;30.40;40.30
14101;DHT22;7127;49.372;8.166;2022-08-01T10:14:01;30.50;40.40
14101;DHT22;7127;49.372;8.166;2022-08-01T10:16:30;30.50;40.40
14101;DHT22;7127;49.372;8.166;2022-08-01T10:18:57;30.60;40.40
14101;DHT22;7127;49.372;8.166;2022-08-01T10:21:27;30.60;40.50
14101;DHT22;7127;49.372;8.166;2022-08-01T10:23:56;30.70;40.40
14101;DHT22;7127;49.372;8.166;2022-08-01T10:26:25;30.80;40.40
14101;DHT22;7127;49.372;8.166;2022-08-01T10:28:54;30.90;40.30
14101;DHT22;7127;49.372;8.166;2022-08-01T10:31:22;31.00;40.20
14101;DHT22;7127;49.372;8.166;2022-08-01T10:33:50;31.10;40.00
14101;DHT22;7127;49.372;8.166;2022-08-01T10:36:19;31.20;39.90
14101;DHT22;7127;49.372;8.166;2022-08-01T10:38:47;31.30;39.60
14101;DHT22;7127;49.372;8.166;2022-08-01T10:41:15;31.40;39.40
14101;DHT22;7127;49.372;8.166;2022-08-01T10:43:45;31.50;39.30
14101;DHT22;7127;49.372;8.166;2022-08-01T10:46:12;31.50;39.00
14101;DHT22;7127;49.372;8.166;2022-08-01T10:48:45;31.60;38.90
14101;DHT22;7127;49.372;8.166;2022-08-01T10:51:14;31.70;38.50
14101;DHT22;7127;49.372;8.166;2022-08-01T10:53:47;31.70;38.50
14101;DHT22;7127;49.372;8.166;2022-08-01T10:56:16;31.80;38.00
14101;DHT22;7127;49.372;8.166;2022-08-01T10:58:44;31.80;38.00
14101;DHT22;7127;49.372;8.166;2022-08-01T11:01:23;31.90;37.90
14101;DHT22;7127;49.372;8.166;2022-08-01T11:04:02;31.90;37.80
14101;DHT22;7127;49.372;8.166;2022-08-01T11:06:41;32.00;37.80
14101;DHT22;7127;49.372;8.166;2022-08-01T11:09:24;32.00;37.90
14101;DHT22;7127;49.372;8.166;2022-08-01T11:12:03;32.10;37.40
14101;DHT22;7127;49.372;8.166;2022-08-01T11:14:33;32.10;37.50
14101;DHT22;7127;49.372;8.166;2022-08-01T11:17:32;32.10;37.10
14101;DHT22;7127;49.372;8.166;2022-08-01T11:20:07;32.20;36.50
14101;DHT22;7127;49.372;8.166;2022-08-01T11:26:16;32.30;36.10
14101;DHT22;7127;49.372;8.166;2022-08-01T11:29:09;32.20;35.90
14101;DHT22;7127;49.372;8.166;2022-08-01T11:31:33;32.20;36.40
14101;DHT22;7127;49.372;8.166;2022-08-01T11:34:01;32.20;36.60
14101;DHT22;7127;49.372;8.166;2022-08-01T11:36:28;32.30;36.70
14101;DHT22;7127;49.372;8.166;2022-08-01T11:39:18;32.30;37.20
14101;DHT22;7127;49.372;8.166;2022-08-01T11:41:47;32.30;36.40
14101;DHT22;7127;49.372;8.166;2022-08-01T11:44:17;32.40;36.50
14101;DHT22;7127;49.372;8.166;2022-08-01T11:46:54;32.40;36.50
14101;DHT22;7127;49.372;8.166;2022-08-01T11:52:13;32.50;36.10
14101;DHT22;7127;49.372;8.166;2022-08-01T11:54:42;32.50;36.30
14101;DHT22;7127;49.372;8.166;2022-08-01T11:57:11;32.50;36.20
14101;DHT22;7127;49.372;8.166;2022-08-01T11:59:41;32.50;36.00
14101;DHT22;7127;49.372;8.166;2022-08-01T12:02:24;32.60;35.50
14101;DHT22;7127;49.372;8.166;2022-08-01T12:04:56;32.60;35.50
14101;DHT22;7127;49.372;8.166;2022-08-01T12:07:25;32.60;35.70
14101;DHT22;7127;49.372;8.166;2022-08-01T12:10:00;32.70;35.80
14101;DHT22;7127;49.372;8.166;2022-08-01T12:12:28;32.80;35.60
14101;DHT22;7127;49.372;8.166;2022-08-01T12:14:58;32.80;35.40
14101;DHT22;7127;49.372;8.166;2022-08-01T12:17:31;32.80;35.10
14101;DHT22;7127;49.372;8.166;2022-08-01T12:20:00;32.90;35.80
14101;DHT22;7127;49.372;8.166;2022-08-01T12:22:27;32.90;35.10
14101;DHT22;7127;49.372;8.166;2022-08-01T12:24:54;33.00;34.80
14101;DHT22;7127;49.372;8.166;2022-08-01T12:27:26;33.00;34.80
14101;DHT22;7127;49.372;8.166;2022-08-01T12:29:53;33.10;34.60
14101;DHT22;7127;49.372;8.166;2022-08-01T12:32:27;33.20;34.50
14101;DHT22;7127;49.372;8.166;2022-08-01T12:34:55;33.20;33.90
14101;DHT22;7127;49.372;8.166;2022-08-01T12:37:23;33.30;34.20
14101;DHT22;7127;49.372;8.166;2022-08-01T12:39:50;33.30;34.30
14101;DHT22;7127;49.372;8.166;2022-08-01T12:42:17;33.40;34.30
14101;DHT22;7127;49.372;8.166;2022-08-01T12:44:48;33.50;34.20
14101;DHT22;7127;49.372;8.166;2022-08-01T12:47:18;33.50;34.10
14101;DHT22;7127;49.372;8.166;2022-08-01T12:49:47;33.50;33.80
14101;DHT22;7127;49.372;8.166;2022-08-01T12:52:15;33.60;33.80
14101;DHT22;7127;49.372;8.166;2022-08-01T12:55:10;33.60;34.00
14101;DHT22;7127;49.372;8.166;2022-08-01T12:57:39;33.70;34.10
14101;DHT22;7127;49.372;8.166;2022-08-01T13:00:11;33.80;34.20
14101;DHT22;7127;49.372;8.166;2022-08-01T13:02:40;33.80;33.90
14101;DHT22;7127;49.372;8.166;2022-08-01T13:05:10;33.90;33.70
14101;DHT22;7127;49.372;8.166;2022-08-01T13:07:39;34.00;33.60
14101;DHT22;7127;49.372;8.166;2022-08-01T13:10:07;34.00;33.50
14101;DHT22;7127;49.372;8.166;2022-08-01T13:12:35;34.10;33.20
14101;DHT22;7127;49.372;8.166;2022-08-01T13:15:17;34.20;32.90
14101;DHT22;7127;49.372;8.166;2022-08-01T13:17:44;34.20;32.60
14101;DHT22;7127;49.372;8.166;2022-08-01T13:20:23;34.30;32.60
14101;DHT22;7127;49.372;8.166;2022-08-01T13:22:50;34.30;32.30
14101;DHT22;7127;49.372;8.166;2022-08-01T13:25:17;34.40;32.60
14101;DHT22;7127;49.372;8.166;2022-08-01T13:27:45;34.40;32.30
14101;DHT22;7127;49.372;8.166;2022-08-01T13:30:13;34.50;32.00
14101;DHT22;7127;49.372;8.166;2022-08-01T13:32:40;34.50;32.00
14101;DHT22;7127;49.372;8.166;2022-08-01T13:35:10;34.50;31.70
14101;DHT22;7127;49.372;8.166;2022-08-01T13:37:40;34.50;31.70
14101;DHT22;7127;49.372;8.166;2022-08-01T13:40:09;34.50;31.70
14101;DHT22;7127;49.372;8.166;2022-08-01T13:42:36;34.50;31.50
14101;DHT22;7127;49.372;8.166;2022-08-01T13:45:04;34.40;31.20
14101;DHT22;7127;49.372;8.166;2022-08-01T13:47:34;34.50;31.20
14101;DHT22;7127;49.372;8.166;2022-08-01T13:50:01;34.40;31.20
14101;DHT22;7127;49.372;8.166;2022-08-01T13:52:29;34.40;31.10
14101;DHT22;7127;49.372;8.166;2022-08-01T13:54:58;34.30;31.30
14101;DHT22;7127;49.372;8.166;2022-08-01T13:57:25;34.30;31.40
14101;DHT22;7127;49.372;8.166;2022-08-01T13:59:53;34.30;31.30
14101;DHT22;7127;49.372;8.166;2022-08-01T14:02:20;34.40;31.40
14101;DHT22;7127;49.372;8.166;2022-08-01T14:04:47;34.40;31.30
14101;DHT22;7127;49.372;8.166;2022-08-01T14:07:14;34.40;31.10
14101;DHT22;7127;49.372;8.166;2022-08-01T14:09:41;34.40;31.10
14101;DHT22;7127;49.372;8.166;2022-08-01T14:12:10;34.40;31.10
14101;DHT22;7127;49.372;8.166;2022-08-01T14:14:37;34.30;31.10
14101;DHT22;7127;49.372;8.166;2022-08-01T14:17:04;34.30;31.00
14101;DHT22;7127;49.372;8.166;2022-08-01T14:19:31;34.20;31.00
14101;DHT22;7127;49.372;8.166;2022-08-01T14:21:58;34.20;31.10
14101;DHT22;7127;49.372;8.166;2022-08-01T14:24:25;34.20;31.10
14101;DHT22;7127;49.372;8.166;2022-08-01T14:26:52;34.10;31.00
14101;DHT22;7127;49.372;8.166;2022-08-01T14:29:21;34.10;31.00
14101;DHT22;7127;49.372;8.166;2022-08-01T14:31:48;34.10;31.10
14101;DHT22;7127;49.372;8.166;2022-08-01T14:34:15;34.00;31.20
14101;DHT22;7127;49.372;8.166;2022-08-01T14:36:42;34.00;31.20
14101;DHT22;7127;49.372;8.166;2022-08-01T14:39:09;34.00;31.20
14101;DHT22;7127;49.372;8.166;2022-08-01T14:41:36;34.00;31.20
14101;DHT22;7127;49.372;8.166;2022-08-01T14:44:03;33.90;31.10
14101;DHT22;7127;49.372;8.166;2022-08-01T14:46:32;33.90;31.30
14101;DHT22;7127;49.372;8.166;2022-08-01T14:48:59;33.80;31.30
14101;DHT22;7127;49.372;8.166;2022-08-01T14:51:26;33.80;31.20
14101;DHT22;7127;49.372;8.166;2022-08-01T14:53:58;33.80;31.20
14101;DHT22;7127;49.372;8.166;2022-08-01T14:56:25;33.80;31.20
14101;DHT22;7127;49.372;8.166;2022-08-01T14:58:52;33.70;31.20
14101;DHT22;7127;49.372;8.166;2022-08-01T15:01:19;33.70;31.20
14101;DHT22;7127;49.372;8.166;2022-08-01T15:03:47;33.60;31.20
14101;DHT22;7127;49.372;8.166;2022-08-01T15:06:16;33.70;31.30
14101;DHT22;7127;49.372;8.166;2022-08-01T15:08:43;33.50;31.20
14101;DHT22;7127;49.372;8.166;2022-08-01T15:11:10;33.50;31.30
14101;DHT22;7127;49.372;8.166;2022-08-01T15:13:37;33.50;31.30
14101;DHT22;7127;49.372;8.166;2022-08-01T15:16:04;33.50;31.50
14101;DHT22;7127;49.372;8.166;2022-08-01T15:18:31;33.40;31.40
14101;DHT22;7127;49.372;8.166;2022-08-01T15:20:59;33.40;31.60
14101;DHT22;7127;49.372;8.166;2022-08-01T15:23:26;33.40;31.60
14101;DHT22;7127;49.372;8.166;2022-08-01T15:25:53;33.30;31.50
14101;DHT22;7127;49.372;8.166;2022-08-01T15:28:20;33.30;31.60
14101;DHT22;7127;49.372;8.166;2022-08-01T15:30:47;33.20;31.60
14101;DHT22;7127;49.372;8.166;2022-08-01T15:33:14;33.20;31.40
14101;DHT22;7127;49.372;8.166;2022-08-01T15:35:42;33.10;31.50
14101;DHT22;7127;49.372;8.166;2022-08-01T15:38:10;33.10;31.50
14101;DHT22;7127;49.372;8.166;2022-08-01T15:40:37;33.10;31.60
14101;DHT22;7127;49.372;8.166;2022-08-01T15:43:04;33.10;31.60
14101;DHT22;7127;49.372;8.166;2022-08-01T15:45:31;33.00;31.60
14101;DHT22;7127;49.372;8.166;2022-08-01T15:47:58;32.90;31.60
14101;DHT22;7127;49.372;8.166;2022-08-01T15:50:25;32.90;31.70
14101;DHT22;7127;49.372;8.166;2022-08-01T15:52:52;32.80;31.80
14101;DHT22;7127;49.372;8.166;2022-08-01T15:55:20;32.80;31.80
14101;DHT22;7127;49.372;8.166;2022-08-01T15:57:47;32.80;32.00
14101;DHT22;7127;49.372;8.166;2022-08-01T16:00:14;32.70;32.00
14101;DHT22;7127;49.372;8.166;2022-08-01T16:02:41;32.60;32.20
14101;DHT22;7127;49.372;8.166;2022-08-01T16:05:09;32.60;32.40